Terminal Aerodrome Forecast
Issued by NWS Newport/Morehead City, NC

Home | Current Version | Previous Version | Text Only | Print | Product List | Glossary Off
Versions: 1 2 3 4 5 6 7 8 9 10 11 12 13 14 15 16

774
FTUS42 KMHX 220959 AAA
TAFEWN
TAF AMD
KEWN 220959Z 2210/2306 00000KT 3SM BR SCT003
      TEMPO 2210/2213 1SM BR BKN005
     FM221300 00000KT P6SM FEW250=

USA.gov is the U.S. government's official web portal to all federal, state and local government web resources and services.